Terminal Aerodrome Forecast
Issued by NWS

Home | Current Version | Previous Version | Graphics & Text | Print | Product List | Glossary On
Versions: 1 2 3 4 5 6 7 8 9 10 11 12 13 14 15 16 17
000
FTUS43 KMPX 210500
TAFRNH
TAF
KRNH 210523Z 2106/2206 28009KT P6SM SCT030 OVC060
     FM210800 30008KT P6SM SCT015 OVC035
      TEMPO 2108/2110 -DZ OVC015
     FM211000 31009KT P6SM -RA OVC015
     FM211500 33010KT P6SM -RA OVC025
     FM211800 34011KT P6SM BKN040
     FM212300 34005KT P6SM SCT045=

USA.gov is the U.S. government's official web portal to all federal, state and local government web resources and services.